Time,TemperatureF,DewpointF,PressureIn,WindDirection,WindDirectionDegrees,WindSpeedMPH,WindSpeedGustMPH,Humidity,HourlyPrecipIn,Conditions,Clouds,dailyrainin,SolarRadiationWatts/m^2,SoftwareType,DateUTC
2013-08-16 02:11:00,78.0,36.0,-100.00,NE,34,1.0,8.0,22,0.00,,,0.00,0.000000,,2013-08-16 08:11:00,
2013-08-16 02:21:00,78.0,36.0,-100.00,NE,34,1.0,8.0,22,0.00,,,0.00,0.000000,,2013-08-16 08:21:00,
2013-08-16 02:31:00,78.0,36.0,-100.00,NE,34,1.0,8.0,22,0.00,,,0.00,0.000000,,2013-08-16 08:31:00,
2013-08-16 02:41:00,78.0,36.0,-100.00,NE,34,1.0,8.0,22,0.00,,,0.00,0.000000,,2013-08-16 08:41:00,
2013-08-16 02:42:00,76.0,39.0,-100.00,NNE,20,2.0,7.0,26,0.00,,,0.00,0.000000,,2013-08-16 08:42:00,
2013-08-16 03:11:00,76.0,39.0,-100.00,NNE,20,2.0,7.0,26,0.00,,,0.00,0.000000,,2013-08-16 09:11:00,
2013-08-16 03:21:00,76.0,39.0,-100.00,NNE,20,2.0,7.0,26,0.00,,,0.00,0.000000,,2013-08-16 09:21:00,
2013-08-16 03:33:00,76.0,39.0,-100.00,NNE,20,2.0,7.0,26,0.00,,,0.00,0.000000,,2013-08-16 09:33:00,
2013-08-16 03:42:00,74.0,39.0,-100.00,North,1,2.0,7.0,28,0.00,,,0.00,0.000000,,2013-08-16 09:42:00,
2013-08-16 04:13:00,74.0,39.0,-100.00,North,1,2.0,7.0,28,0.00,,,0.00,0.000000,,2013-08-16 10:13:00,
2013-08-16 04:23:00,74.0,39.0,-100.00,North,1,2.0,7.0,28,0.00,,,0.00,0.000000,,2013-08-16 10:23:00,
2013-08-16 04:33:00,74.0,39.0,-100.00,North,1,2.0,7.0,28,0.00,,,0.00,0.000000,,2013-08-16 10:33:00,
2013-08-16 04:42:00,73.0,40.0,-100.00,NNE,25,3.0,8.0,30,0.00,,,0.00,0.000000,,2013-08-16 10:42:00,
2013-08-16 05:12:00,73.0,40.0,-100.00,NNE,25,3.0,8.0,30,0.00,,,0.00,0.000000,,2013-08-16 11:12:00,
2013-08-16 05:21:00,73.0,40.0,-100.00,NNE,25,3.0,8.0,30,0.00,,,0.00,0.000000,,2013-08-16 11:21:00,
2013-08-16 05:32:00,73.0,40.0,-100.00,NNE,25,3.0,8.0,30,0.00,,,0.00,0.000000,,2013-08-16 11:32:00,
2013-08-16 06:12:00,70.0,40.0,-100.00,East,94,1.0,9.0,33,0.00,,,0.00,0.000000,,2013-08-16 12:12:00,
2013-08-16 06:21:00,70.0,40.0,-100.00,East,94,1.0,9.0,33,0.00,,,0.00,0.000000,,2013-08-16 12:21:00,
2013-08-16 06:31:00,70.0,40.0,-100.00,East,94,1.0,9.0,33,0.00,,,0.00,0.000000,,2013-08-16 12:31:00,
2013-08-16 06:41:00,70.0,40.0,-100.00,East,94,1.0,9.0,33,0.00,,,0.00,0.000000,,2013-08-16 12:41:00,
2013-08-16 06:42:00,71.0,40.0,-100.00,NNE,24,4.0,8.0,33,0.00,,,0.00,0.000000,,2013-08-16 12:42:00,
2013-08-16 07:11:00,71.0,40.0,-100.00,NNE,24,4.0,8.0,33,0.00,,,0.00,0.000000,,2013-08-16 13:11:00,
2013-08-16 07:21:00,71.0,40.0,-100.00,NNE,24,4.0,8.0,33,0.00,,,0.00,0.000000,,2013-08-16 13:21:00,
2013-08-16 07:32:00,71.0,40.0,-100.00,NNE,24,4.0,8.0,33,0.00,,,0.00,0.000000,,2013-08-16 13:32:00,
2013-08-16 08:11:00,71.0,41.0,-100.00,South,180,1.0,7.0,34,0.00,,,0.00,22.000000,,2013-08-16 14:11:00,
2013-08-16 08:22:00,71.0,41.0,-100.00,South,180,1.0,7.0,34,0.00,,,0.00,22.000000,,2013-08-16 14:22:00,
2013-08-16 08:31:00,71.0,41.0,-100.00,South,180,1.0,7.0,34,0.00,,,0.00,22.000000,,2013-08-16 14:31:00,
2013-08-16 08:41:00,71.0,41.0,-100.00,South,180,1.0,7.0,34,0.00,,,0.00,22.000000,,2013-08-16 14:41:00,
2013-08-16 08:42:00,74.0,43.0,-100.00,NW,319,2.0,6.0,33,0.00,,,0.00,154.000000,,2013-08-16 14:42:00,
2013-08-16 09:12:00,74.0,43.0,-100.00,NW,319,2.0,6.0,33,0.00,,,0.00,154.000000,,2013-08-16 15:12:00,
2013-08-16 09:22:00,74.0,43.0,-100.00,NW,319,2.0,6.0,33,0.00,,,0.00,154.000000,,2013-08-16 15:22:00,
2013-08-16 09:33:00,74.0,43.0,-100.00,NW,319,2.0,6.0,33,0.00,,,0.00,154.000000,,2013-08-16 15:33:00,
2013-08-16 09:42:00,77.0,45.0,-100.00,NW,310,4.0,10.0,32,0.00,,,0.00,298.000000,,2013-08-16 15:42:00,
2013-08-16 10:13:00,77.0,45.0,-100.00,NW,310,4.0,10.0,32,0.00,,,0.00,298.000000,,2013-08-16 16:13:00,
2013-08-16 10:23:00,77.0,45.0,-100.00,NW,310,4.0,10.0,32,0.00,,,0.00,298.000000,,2013-08-16 16:23:00,
2013-08-16 10:34:00,77.0,45.0,-100.00,NW,310,4.0,10.0,32,0.00,,,0.00,298.000000,,2013-08-16 16:34:00,
2013-08-16 10:42:00,81.0,44.0,-100.00,NNW,344,2.0,12.0,27,0.00,,,0.00,487.000000,,2013-08-16 16:42:00,
2013-08-16 11:12:00,81.0,44.0,-100.00,NNW,344,2.0,12.0,27,0.00,,,0.00,487.000000,,2013-08-16 17:12:00,
2013-08-16 11:28:00,81.0,44.0,-100.00,NNW,344,2.0,12.0,27,0.00,,,0.00,487.000000,,2013-08-16 17:28:00,
2013-08-16 11:34:00,81.0,44.0,-100.00,NNW,344,2.0,12.0,27,0.00,,,0.00,487.000000,,2013-08-16 17:34:00,
2013-08-16 11:42:00,-999.0,-99.9,-100.00,SE,142,5.0,11.0,24,0.00,,,0.00,601.000000,,2013-08-16 17:42:00,
2013-08-16 12:15:00,83.0,42.0,-100.00,SE,142,5.0,11.0,24,0.00,,,0.00,601.000000,,2013-08-16 18:15:00,
2013-08-16 12:28:00,83.0,42.0,-100.00,SE,142,5.0,11.0,24,0.00,,,0.00,601.000000,,2013-08-16 18:28:00,
2013-08-16 12:42:00,84.0,41.0,-100.00,South,176,8.0,17.0,22,0.00,,,0.00,755.000000,,2013-08-16 18:42:00,
2013-08-16 13:14:00,84.0,41.0,-100.00,South,176,8.0,17.0,22,0.00,,,0.00,755.000000,,2013-08-16 19:14:00,
2013-08-16 13:25:00,84.0,41.0,-100.00,South,176,8.0,17.0,22,0.00,,,0.00,755.000000,,2013-08-16 19:25:00,
2013-08-16 13:36:00,84.0,41.0,-100.00,South,176,8.0,17.0,22,0.00,,,0.00,755.000000,,2013-08-16 19:36:00,
2013-08-16 13:42:00,87.0,42.0,-100.00,South,187,10.0,17.0,21,0.00,,,0.00,822.000000,,2013-08-16 19:42:00,
2013-08-16 14:11:00,87.0,42.0,-100.00,South,187,10.0,17.0,21,0.00,,,0.00,822.000000,,2013-08-16 20:11:00,
2013-08-16 14:23:00,87.0,42.0,-100.00,South,187,10.0,17.0,21,0.00,,,0.00,822.000000,,2013-08-16 20:23:00,
2013-08-16 14:38:00,87.0,42.0,-100.00,South,187,10.0,17.0,21,0.00,,,0.00,822.000000,,2013-08-16 20:38:00,
2013-08-16 14:42:00,89.0,40.0,-100.00,South,172,12.0,21.0,18,0.00,,,0.00,854.000000,,2013-08-16 20:42:00,
2013-08-16 15:11:00,89.0,40.0,-100.00,South,172,12.0,21.0,18,0.00,,,0.00,854.000000,,2013-08-16 21:11:00,
2013-08-16 15:25:00,89.0,40.0,-100.00,South,172,12.0,21.0,18,0.00,,,0.00,854.000000,,2013-08-16 21:25:00,
2013-08-16 15:40:00,-999.0,-99.9,-100.00,South,172,12.0,21.0,-999,0.00,,,0.00,854.000000,,2013-08-16 21:40:00,
2013-08-16 15:42:00,91.0,37.0,-100.00,SSW,197,13.0,25.0,15,0.00,,,0.00,817.000000,,2013-08-16 21:42:00,
2013-08-16 16:13:00,91.0,37.0,-100.00,SSW,197,13.0,25.0,15,0.00,,,0.00,817.000000,,2013-08-16 22:13:00,
2013-08-16 16:24:00,91.0,37.0,-100.00,SSW,197,13.0,25.0,15,0.00,,,0.00,817.000000,,2013-08-16 22:24:00,
2013-08-16 16:33:00,91.0,37.0,-100.00,SSW,197,13.0,25.0,15,0.00,,,0.00,817.000000,,2013-08-16 22:33:00,
2013-08-16 16:42:00,92.0,30.0,-100.00,South,169,14.0,24.0,11,0.00,,,0.00,740.000000,,2013-08-16 22:42:00,
2013-08-16 17:12:00,92.0,30.0,-100.00,South,169,14.0,24.0,11,0.00,,,0.00,740.000000,,2013-08-16 23:12:00,
2013-08-16 17:23:00,92.0,30.0,-100.00,South,169,14.0,24.0,11,0.00,,,0.00,740.000000,,2013-08-16 23:23:00,
2013-08-16 17:32:00,92.0,30.0,-100.00,South,169,14.0,24.0,11,0.00,,,0.00,740.000000,,2013-08-16 23:32:00,
2013-08-16 18:11:00,92.0,30.0,-100.00,South,187,10.0,22.0,11,0.00,,,0.00,609.000000,,2013-08-17 00:11:00,
2013-08-16 18:21:00,92.0,30.0,-100.00,South,187,10.0,22.0,11,0.00,,,0.00,609.000000,,2013-08-17 00:21:00,
2013-08-16 18:32:00,92.0,30.0,-100.00,South,187,10.0,22.0,11,0.00,,,0.00,609.000000,,2013-08-17 00:32:00,
2013-08-16 18:41:00,92.0,30.0,-100.00,South,187,10.0,22.0,11,0.00,,,0.00,609.000000,,2013-08-17 00:41:00,
2013-08-16 18:42:00,91.0,29.0,-100.00,South,187,12.0,20.0,11,0.00,,,0.00,445.000000,,2013-08-17 00:42:00,
2013-08-16 19:11:00,91.0,29.0,-100.00,South,187,12.0,20.0,11,0.00,,,0.00,445.000000,,2013-08-17 01:11:00,
2013-08-16 19:21:00,91.0,29.0,-100.00,South,187,12.0,20.0,11,0.00,,,0.00,445.000000,,2013-08-17 01:21:00,
2013-08-16 19:32:00,91.0,29.0,-100.00,South,187,12.0,20.0,11,0.00,,,0.00,445.000000,,2013-08-17 01:32:00,
2013-08-16 19:42:00,88.0,33.0,-100.00,South,186,8.0,20.0,14,0.00,,,0.00,233.000000,,2013-08-17 01:42:00,
2013-08-16 20:11:00,88.0,33.0,-100.00,South,186,8.0,20.0,14,0.00,,,0.00,233.000000,,2013-08-17 02:11:00,
2013-08-16 20:21:00,88.0,33.0,-100.00,South,186,8.0,20.0,14,0.00,,,0.00,233.000000,,2013-08-17 02:21:00,
2013-08-16 20:31:00,88.0,33.0,-100.00,South,186,8.0,20.0,14,0.00,,,0.00,233.000000,,2013-08-17 02:31:00,
2013-08-16 20:42:00,86.0,33.0,-100.00,South,191,3.0,14.0,15,0.00,,,0.00,66.000000,,2013-08-17 02:42:00,
2013-08-16 21:11:00,86.0,33.0,-100.00,South,191,3.0,14.0,15,0.00,,,0.00,66.000000,,2013-08-17 03:11:00,
2013-08-16 21:21:00,86.0,33.0,-100.00,South,191,3.0,14.0,15,0.00,,,0.00,66.000000,,2013-08-17 03:21:00,
2013-08-16 21:34:00,86.0,33.0,-100.00,South,191,3.0,14.0,15,0.00,,,0.00,66.000000,,2013-08-17 03:34:00,
2013-08-16 21:42:00,84.0,33.0,-100.00,ENE,66,3.0,5.0,16,0.00,,,-99.99,1.000000,,2013-08-17 03:42:00,
2013-08-16 22:12:00,84.0,33.0,-100.00,ENE,66,3.0,5.0,16,0.00,,,-99.99,1.000000,,2013-08-17 04:12:00,
2013-08-16 22:23:00,84.0,33.0,-100.00,ENE,66,3.0,5.0,16,0.00,,,-99.99,1.000000,,2013-08-17 04:23:00,
2013-08-16 22:32:00,84.0,33.0,-100.00,ENE,66,3.0,5.0,16,0.00,,,-99.99,1.000000,,2013-08-17 04:32:00,
2013-08-16 22:42:00,78.0,35.0,-100.00,ENE,71,3.0,11.0,21,0.00,,,0.00,0.000000,,2013-08-17 04:42:00,
2013-08-16 23:12:00,78.0,35.0,-100.00,ENE,71,3.0,11.0,21,0.00,,,0.00,0.000000,,2013-08-17 05:12:00,
2013-08-16 23:22:00,78.0,35.0,-100.00,ENE,71,3.0,11.0,21,0.00,,,0.00,0.000000,,2013-08-17 05:22:00,
2013-08-16 23:32:00,78.0,35.0,-100.00,ENE,71,3.0,11.0,21,0.00,,,0.00,0.000000,,2013-08-17 05:32:00,
2013-08-16 23:42:00,75.0,44.0,-100.00,ESE,108,2.0,17.0,33,0.00,,,0.00,0.000000,,2013-08-17 05:42:00,